sensor_id;sensor_type;location;lat;lon;timestamp;temperature;humidity
18153;DHT22;9202;51.578;7.734;2023-03-01T00:01:04;-1.10;99.90
18153;DHT22;9202;51.578;7.734;2023-03-01T00:03:08;-1.20;99.90
18153;DHT22;9202;51.578;7.734;2023-03-01T00:05:11;-1.20;99.90
18153;DHT22;9202;51.578;7.734;2023-03-01T00:07:14;-1.10;99.90
18153;DHT22;9202;51.578;7.734;2023-03-01T00:09:17;-1.20;99.90
18153;DHT22;9202;51.578;7.734;2023-03-01T00:11:21;-1.40;99.90
18153;DHT22;9202;51.578;7.734;2023-03-01T00:13:24;-1.30;99.90
18153;DHT22;9202;51.578;7.734;2023-03-01T00:15:27;-1.20;99.90
18153;DHT22;9202;51.578;7.734;2023-03-01T00:17:30;-1.20;99.90
18153;DHT22;9202;51.578;7.734;2023-03-01T00:19:32;-1.20;99.90
18153;DHT22;9202;51.578;7.734;2023-03-01T00:21:35;-1.20;99.90
18153;DHT22;9202;51.578;7.734;2023-03-01T00:23:38;-1.30;99.90
18153;DHT22;9202;51.578;7.734;2023-03-01T00:25:41;-1.30;99.90
18153;DHT22;9202;51.578;7.734;2023-03-01T00:27:44;-1.30;99.90
18153;DHT22;9202;51.578;7.734;2023-03-01T00:29:47;-1.30;99.90
18153;DHT22;9202;51.578;7.734;2023-03-01T00:31:49;-1.30;99.90
18153;DHT22;9202;51.578;7.734;2023-03-01T00:33:52;-1.40;99.90
18153;DHT22;9202;51.578;7.734;2023-03-01T00:35:57;-1.30;99.90
18153;DHT22;9202;51.578;7.734;2023-03-01T00:38:00;-1.50;99.90
18153;DHT22;9202;51.578;7.734;2023-03-01T00:40:03;-1.40;99.90
18153;DHT22;9202;51.578;7.734;2023-03-01T00:42:07;-1.40;99.90
18153;DHT22;9202;51.578;7.734;2023-03-01T00:44:10;-1.40;99.90
18153;DHT22;9202;51.578;7.734;2023-03-01T00:46:14;-1.40;99.90
18153;DHT22;9202;51.578;7.734;2023-03-01T00:48:16;-1.40;99.90
18153;DHT22;9202;51.578;7.734;2023-03-01T00:50:19;-1.40;99.90
18153;DHT22;9202;51.578;7.734;2023-03-01T00:52:22;-1.40;99.90
18153;DHT22;9202;51.578;7.734;2023-03-01T00:54:25;-1.40;99.90
18153;DHT22;9202;51.578;7.734;2023-03-01T00:56:27;-1.40;99.90
18153;DHT22;9202;51.578;7.734;2023-03-01T00:58:30;-1.50;99.90
18153;DHT22;9202;51.578;7.734;2023-03-01T01:00:33;-1.60;99.90
18153;DHT22;9202;51.578;7.734;2023-03-01T01:02:36;-1.60;99.90
18153;DHT22;9202;51.578;7.734;2023-03-01T01:04:38;-1.70;99.90
18153;DHT22;9202;51.578;7.734;2023-03-01T01:06:42;-1.70;99.90
18153;DHT22;9202;51.578;7.734;2023-03-01T01:08:44;-1.70;99.90
18153;DHT22;9202;51.578;7.734;2023-03-01T01:10:47;-1.70;99.90
18153;DHT22;9202;51.578;7.734;2023-03-01T01:12:50;-1.80;99.90
18153;DHT22;9202;51.578;7.734;2023-03-01T01:14:52;-1.90;99.90
18153;DHT22;9202;51.578;7.734;2023-03-01T01:16:55;-1.90;99.90
18153;DHT22;9202;51.578;7.734;2023-03-01T01:18:58;-1.90;99.90
18153;DHT22;9202;51.578;7.734;2023-03-01T01:21:05;-2.00;99.90
18153;DHT22;9202;51.578;7.734;2023-03-01T01:23:08;-2.00;99.90
18153;DHT22;9202;51.578;7.734;2023-03-01T01:25:11;-2.10;99.90
18153;DHT22;9202;51.578;7.734;2023-03-01T01:27:13;-2.20;99.90
18153;DHT22;9202;51.578;7.734;2023-03-01T01:29:16;-2.20;99.90
18153;DHT22;9202;51.578;7.734;2023-03-01T01:31:19;-2.10;99.90
18153;DHT22;9202;51.578;7.734;2023-03-01T01:33:22;-2.00;99.90
18153;DHT22;9202;51.578;7.734;2023-03-01T01:35:25;-2.00;99.90
18153;DHT22;9202;51.578;7.734;2023-03-01T01:37:28;-2.00;99.90
18153;DHT22;9202;51.578;7.734;2023-03-01T01:39:32;-2.00;99.90
18153;DHT22;9202;51.578;7.734;2023-03-01T01:41:35;-2.00;99.90
18153;DHT22;9202;51.578;7.734;2023-03-01T01:43:38;-2.00;99.90
18153;DHT22;9202;51.578;7.734;2023-03-01T01:45:43;-2.00;99.90
18153;DHT22;9202;51.578;7.734;2023-03-01T01:47:46;-2.00;99.90
18153;DHT22;9202;51.578;7.734;2023-03-01T01:49:51;-2.00;99.90
18153;DHT22;9202;51.578;7.734;2023-03-01T01:51:56;-2.00;99.90
18153;DHT22;9202;51.578;7.734;2023-03-01T01:54:00;-2.00;99.90
18153;DHT22;9202;51.578;7.734;2023-03-01T01:56:03;-2.00;99.90
18153;DHT22;9202;51.578;7.734;2023-03-01T01:58:08;-2.10;99.90
18153;DHT22;9202;51.578;7.734;2023-03-01T02:00:13;-2.10;99.90
18153;DHT22;9202;51.578;7.734;2023-03-01T02:02:16;-2.10;99.90
18153;DHT22;9202;51.578;7.734;2023-03-01T02:04:19;-2.10;99.90
18153;DHT22;9202;51.578;7.734;2023-03-01T02:06:25;-2.10;99.90
18153;DHT22;9202;51.578;7.734;2023-03-01T02:08:28;-2.10;99.90
18153;DHT22;9202;51.578;7.734;2023-03-01T02:10:33;-2.10;99.90
18153;DHT22;9202;51.578;7.734;2023-03-01T02:12:38;-2.10;99.90
18153;DHT22;9202;51.578;7.734;2023-03-01T02:14:42;-2.30;99.90
18153;DHT22;9202;51.578;7.734;2023-03-01T02:16:45;-2.40;99.90
18153;DHT22;9202;51.578;7.734;2023-03-01T02:18:47;-2.40;99.90
18153;DHT22;9202;51.578;7.734;2023-03-01T02:20:53;-2.30;99.90
18153;DHT22;9202;51.578;7.734;2023-03-01T02:22:57;-2.30;99.90
18153;DHT22;9202;51.578;7.734;2023-03-01T02:25:05;-2.30;99.90
18153;DHT22;9202;51.578;7.734;2023-03-01T02:27:08;-2.20;99.90
18153;DHT22;9202;51.578;7.734;2023-03-01T02:29:11;-2.10;99.90
18153;DHT22;9202;51.578;7.734;2023-03-01T02:31:15;-2.30;99.90
18153;DHT22;9202;51.578;7.734;2023-03-01T02:33:37;-2.30;99.90
18153;DHT22;9202;51.578;7.734;2023-03-01T02:35:41;-2.40;99.90
18153;DHT22;9202;51.578;7.734;2023-03-01T02:37:44;-2.40;99.90
18153;DHT22;9202;51.578;7.734;2023-03-01T02:39:47;-2.50;99.90
18153;DHT22;9202;51.578;7.734;2023-03-01T02:41:51;-2.50;99.90
18153;DHT22;9202;51.578;7.734;2023-03-01T02:43:54;-2.50;99.90
18153;DHT22;9202;51.578;7.734;2023-03-01T02:45:58;-2.50;99.90
18153;DHT22;9202;51.578;7.734;2023-03-01T02:48:02;-2.60;99.90
18153;DHT22;9202;51.578;7.734;2023-03-01T02:50:09;-2.70;99.90
18153;DHT22;9202;51.578;7.734;2023-03-01T02:52:36;-2.70;99.90
18153;DHT22;9202;51.578;7.734;2023-03-01T02:54:40;-2.70;99.90
18153;DHT22;9202;51.578;7.734;2023-03-01T02:56:44;-2.60;99.90
18153;DHT22;9202;51.578;7.734;2023-03-01T02:58:51;-2.60;99.90
18153;DHT22;9202;51.578;7.734;2023-03-01T03:00:54;-2.60;99.90
18153;DHT22;9202;51.578;7.734;2023-03-01T03:02:58;-2.70;99.90
18153;DHT22;9202;51.578;7.734;2023-03-01T03:05:01;-2.70;99.90
18153;DHT22;9202;51.578;7.734;2023-03-01T03:07:04;-2.80;99.90
18153;DHT22;9202;51.578;7.734;2023-03-01T03:09:06;-2.80;99.90
18153;DHT22;9202;51.578;7.734;2023-03-01T03:11:10;-2.80;99.90
18153;DHT22;9202;51.578;7.734;2023-03-01T03:13:13;-2.80;99.90
18153;DHT22;9202;51.578;7.734;2023-03-01T03:15:16;-2.80;99.90
18153;DHT22;9202;51.578;7.734;2023-03-01T03:17:19;-2.90;99.90
18153;DHT22;9202;51.578;7.734;2023-03-01T03:19:22;-2.90;99.90
18153;DHT22;9202;51.578;7.734;2023-03-01T03:21:24;-3.10;99.90
18153;DHT22;9202;51.578;7.734;2023-03-01T03:23:29;-3.10;99.90
18153;DHT22;9202;51.578;7.734;2023-03-01T03:25:31;-3.10;99.90
18153;DHT22;9202;51.578;7.734;2023-03-01T03:27:34;-3.10;99.90
18153;DHT22;9202;51.578;7.734;2023-03-01T03:29:37;-3.10;99.90
18153;DHT22;9202;51.578;7.734;2023-03-01T03:31:39;-3.10;99.90
18153;DHT22;9202;51.578;7.734;2023-03-01T03:33:42;-3.00;99.90
18153;DHT22;9202;51.578;7.734;2023-03-01T03:35:45;-3.00;99.90
18153;DHT22;9202;51.578;7.734;2023-03-01T03:37:48;-3.00;99.90
18153;DHT22;9202;51.578;7.734;2023-03-01T03:40:09;-3.00;99.90
18153;DHT22;9202;51.578;7.734;2023-03-01T03:42:13;-3.00;99.90
18153;DHT22;9202;51.578;7.734;2023-03-01T03:44:16;-3.00;99.90
18153;DHT22;9202;51.578;7.734;2023-03-01T03:46:18;-3.00;99.90
18153;DHT22;9202;51.578;7.734;2023-03-01T03:48:21;-3.00;99.90
18153;DHT22;9202;51.578;7.734;2023-03-01T03:50:23;-2.90;99.90
18153;DHT22;9202;51.578;7.734;2023-03-01T03:52:26;-3.00;99.90
18153;DHT22;9202;51.578;7.734;2023-03-01T03:54:28;-2.90;99.90
18153;DHT22;9202;51.578;7.734;2023-03-01T03:56:31;-3.00;99.90
18153;DHT22;9202;51.578;7.734;2023-03-01T03:58:34;-3.00;99.90
18153;DHT22;9202;51.578;7.734;2023-03-01T04:00:37;-3.00;99.90
18153;DHT22;9202;51.578;7.734;2023-03-01T04:02:40;-3.00;99.90
18153;DHT22;9202;51.578;7.734;2023-03-01T04:04:43;-3.00;99.90
18153;DHT22;9202;51.578;7.734;2023-03-01T04:06:45;-3.10;99.90
18153;DHT22;9202;51.578;7.734;2023-03-01T04:08:50;-3.20;99.90
18153;DHT22;9202;51.578;7.734;2023-03-01T04:10:53;-3.30;99.90
18153;DHT22;9202;51.578;7.734;2023-03-01T04:12:57;-3.30;99.90
18153;DHT22;9202;51.578;7.734;2023-03-01T04:15:00;-3.40;99.90
18153;DHT22;9202;51.578;7.734;2023-03-01T04:17:03;-3.60;99.90
18153;DHT22;9202;51.578;7.734;2023-03-01T04:19:07;-3.60;99.90
18153;DHT22;9202;51.578;7.734;2023-03-01T04:21:11;-3.60;99.90
18153;DHT22;9202;51.578;7.734;2023-03-01T04:23:15;-3.60;99.90
18153;DHT22;9202;51.578;7.734;2023-03-01T04:25:19;-3.60;99.90
18153;DHT22;9202;51.578;7.734;2023-03-01T04:27:24;-3.50;99.90
18153;DHT22;9202;51.578;7.734;2023-03-01T04:29:28;-3.50;99.90
18153;DHT22;9202;51.578;7.734;2023-03-01T04:31:30;-3.50;99.90
18153;DHT22;9202;51.578;7.734;2023-03-01T04:33:33;-3.50;99.90
18153;DHT22;9202;51.578;7.734;2023-03-01T04:35:35;-3.50;99.90
18153;DHT22;9202;51.578;7.734;2023-03-01T04:37:39;-3.40;99.90
18153;DHT22;9202;51.578;7.734;2023-03-01T04:39:43;-3.40;99.90
18153;DHT22;9202;51.578;7.734;2023-03-01T04:41:47;-3.40;99.90
18153;DHT22;9202;51.578;7.734;2023-03-01T04:43:50;-3.40;99.90
18153;DHT22;9202;51.578;7.734;2023-03-01T04:45:52;-3.40;99.90
18153;DHT22;9202;51.578;7.734;2023-03-01T04:47:55;-3.40;99.90
18153;DHT22;9202;51.578;7.734;2023-03-01T04:49:59;-3.50;99.90
18153;DHT22;9202;51.578;7.734;2023-03-01T04:52:02;-3.50;99.90
18153;DHT22;9202;51.578;7.734;2023-03-01T04:54:05;-3.50;99.90
18153;DHT22;9202;51.578;7.734;2023-03-01T04:56:10;-3.60;99.90
18153;DHT22;9202;51.578;7.734;2023-03-01T04:58:12;-3.60;99.90
18153;DHT22;9202;51.578;7.734;2023-03-01T05:00:15;-3.50;99.90
18153;DHT22;9202;51.578;7.734;2023-03-01T05:02:24;-3.50;99.90
18153;DHT22;9202;51.578;7.734;2023-03-01T05:04:26;-3.50;99.90
18153;DHT22;9202;51.578;7.734;2023-03-01T05:06:30;-3.40;99.90
18153;DHT22;9202;51.578;7.734;2023-03-01T05:08:33;-3.50;99.90
18153;DHT22;9202;51.578;7.734;2023-03-01T05:10:36;-3.50;99.90
18153;DHT22;9202;51.578;7.734;2023-03-01T05:12:40;-3.60;99.90
18153;DHT22;9202;51.578;7.734;2023-03-01T05:14:43;-3.60;99.90
18153;DHT22;9202;51.578;7.734;2023-03-01T05:16:45;-3.80;99.90
18153;DHT22;9202;51.578;7.734;2023-03-01T05:18:48;-3.70;99.90
18153;DHT22;9202;51.578;7.734;2023-03-01T05:20:52;-3.70;99.90
18153;DHT22;9202;51.578;7.734;2023-03-01T05:22:55;-3.80;99.90
18153;DHT22;9202;51.578;7.734;2023-03-01T05:24:58;-3.80;99.90
18153;DHT22;9202;51.578;7.734;2023-03-01T05:27:01;-3.80;99.90
18153;DHT22;9202;51.578;7.734;2023-03-01T05:29:04;-3.70;99.90
18153;DHT22;9202;51.578;7.734;2023-03-01T05:31:06;-3.80;99.90
18153;DHT22;9202;51.578;7.734;2023-03-01T05:33:11;-3.80;99.90
18153;DHT22;9202;51.578;7.734;2023-03-01T05:35:16;-3.70;99.90
18153;DHT22;9202;51.578;7.734;2023-03-01T05:37:19;-3.80;99.90
18153;DHT22;9202;51.578;7.734;2023-03-01T05:39:22;-3.80;99.90
18153;DHT22;9202;51.578;7.734;2023-03-01T05:41:24;-3.80;99.90
18153;DHT22;9202;51.578;7.734;2023-03-01T05:43:29;-3.90;99.90
18153;DHT22;9202;51.578;7.734;2023-03-01T05:45:32;-4.00;99.90
18153;DHT22;9202;51.578;7.734;2023-03-01T05:47:34;-4.00;99.90
18153;DHT22;9202;51.578;7.734;2023-03-01T05:49:37;-4.10;99.90
18153;DHT22;9202;51.578;7.734;2023-03-01T05:51:41;-4.10;99.90
18153;DHT22;9202;51.578;7.734;2023-03-01T05:53:44;-4.20;99.90
18153;DHT22;9202;51.578;7.734;2023-03-01T05:55:47;-4.30;99.90
18153;DHT22;9202;51.578;7.734;2023-03-01T05:57:51;-4.20;99.90
18153;DHT22;9202;51.578;7.734;2023-03-01T05:59:54;-4.30;99.90
18153;DHT22;9202;51.578;7.734;2023-03-01T06:01:57;-4.30;99.90
18153;DHT22;9202;51.578;7.734;2023-03-01T06:04:00;-4.30;99.90
18153;DHT22;9202;51.578;7.734;2023-03-01T06:06:02;-4.30;99.90
18153;DHT22;9202;51.578;7.734;2023-03-01T06:08:05;-4.30;99.90
18153;DHT22;9202;51.578;7.734;2023-03-01T06:10:09;-4.20;99.90
18153;DHT22;9202;51.578;7.734;2023-03-01T06:12:12;-4.20;99.90
18153;DHT22;9202;51.578;7.734;2023-03-01T06:14:15;-4.10;99.90
18153;DHT22;9202;51.578;7.734;2023-03-01T06:16:17;-4.00;99.90
18153;DHT22;9202;51.578;7.734;2023-03-01T06:18:21;-4.00;99.90
18153;DHT22;9202;51.578;7.734;2023-03-01T06:20:24;-4.00;99.90
18153;DHT22;9202;51.578;7.734;2023-03-01T06:22:27;-4.00;99.90
18153;DHT22;9202;51.578;7.734;2023-03-01T06:24:29;-4.00;99.90
18153;DHT22;9202;51.578;7.734;2023-03-01T06:26:32;-3.90;99.90
18153;DHT22;9202;51.578;7.734;2023-03-01T06:28:35;-3.90;99.90
18153;DHT22;9202;51.578;7.734;2023-03-01T06:30:37;-4.80;99.90
18153;DHT22;9202;51.578;7.734;2023-03-01T06:32:40;-3.90;99.90
18153;DHT22;9202;51.578;7.734;2023-03-01T06:34:45;-3.80;99.90
18153;DHT22;9202;51.578;7.734;2023-03-01T06:36:50;-3.80;99.90
18153;DHT22;9202;51.578;7.734;2023-03-01T06:38:52;-3.90;99.90
18153;DHT22;9202;51.578;7.734;2023-03-01T06:40:55;-3.80;99.90
18153;DHT22;9202;51.578;7.734;2023-03-01T06:42:58;-3.80;99.90
18153;DHT22;9202;51.578;7.734;2023-03-01T06:45:01;-3.70;99.90
18153;DHT22;9202;51.578;7.734;2023-03-01T06:47:03;-3.60;99.90
18153;DHT22;9202;51.578;7.734;2023-03-01T06:49:06;-3.60;99.90
18153;DHT22;9202;51.578;7.734;2023-03-01T06:51:11;-3.50;99.90
18153;DHT22;9202;51.578;7.734;2023-03-01T06:53:13;-3.40;99.90
18153;DHT22;9202;51.578;7.734;2023-03-01T06:55:16;-3.50;99.90
18153;DHT22;9202;51.578;7.734;2023-03-01T06:57:18;-3.50;99.90
18153;DHT22;9202;51.578;7.734;2023-03-01T06:59:22;-3.40;99.90
18153;DHT22;9202;51.578;7.734;2023-03-01T07:01:24;-3.30;99.90
18153;DHT22;9202;51.578;7.734;2023-03-01T07:03:27;-3.30;99.90
18153;DHT22;9202;51.578;7.734;2023-03-01T07:05:30;-3.30;99.90
18153;DHT22;9202;51.578;7.734;2023-03-01T07:07:32;-3.30;99.90
18153;DHT22;9202;51.578;7.734;2023-03-01T07:09:35;-3.20;99.90
18153;DHT22;9202;51.578;7.734;2023-03-01T07:11:38;-3.20;99.90
18153;DHT22;9202;51.578;7.734;2023-03-01T07:13:41;-3.20;99.90
18153;DHT22;9202;51.578;7.734;2023-03-01T07:15:44;-3.10;99.90
18153;DHT22;9202;51.578;7.734;2023-03-01T07:17:46;-3.00;99.90
18153;DHT22;9202;51.578;7.734;2023-03-01T07:19:50;-2.90;99.90
18153;DHT22;9202;51.578;7.734;2023-03-01T07:21:53;-2.90;99.90
18153;DHT22;9202;51.578;7.734;2023-03-01T07:23:57;-2.90;99.90
18153;DHT22;9202;51.578;7.734;2023-03-01T07:25:59;-2.80;99.90
18153;DHT22;9202;51.578;7.734;2023-03-01T07:28:02;-2.70;99.90
18153;DHT22;9202;51.578;7.734;2023-03-01T07:30:06;-2.70;99.90
18153;DHT22;9202;51.578;7.734;2023-03-01T07:32:09;-2.70;99.90
18153;DHT22;9202;51.578;7.734;2023-03-01T07:34:13;-2.60;99.90
18153;DHT22;9202;51.578;7.734;2023-03-01T07:36:16;-2.60;99.90
18153;DHT22;9202;51.578;7.734;2023-03-01T07:38:18;-2.50;99.90
18153;DHT22;9202;51.578;7.734;2023-03-01T07:40:21;-2.40;99.90
18153;DHT22;9202;51.578;7.734;2023-03-01T07:42:23;-2.40;99.90
18153;DHT22;9202;51.578;7.734;2023-03-01T07:44:26;-2.30;99.90
18153;DHT22;9202;51.578;7.734;2023-03-01T07:46:30;-2.30;99.90
18153;DHT22;9202;51.578;7.734;2023-03-01T07:48:33;-2.20;99.90
18153;DHT22;9202;51.578;7.734;2023-03-01T07:50:35;-2.10;99.90
18153;DHT22;9202;51.578;7.734;2023-03-01T07:52:38;-2.10;99.90
18153;DHT22;9202;51.578;7.734;2023-03-01T07:54:42;-2.00;99.90
18153;DHT22;9202;51.578;7.734;2023-03-01T07:56:44;-1.90;99.90
18153;DHT22;9202;51.578;7.734;2023-03-01T07:58:47;-1.80;99.90
18153;DHT22;9202;51.578;7.734;2023-03-01T08:00:51;-1.70;99.90
18153;DHT22;9202;51.578;7.734;2023-03-01T08:02:54;-1.60;99.90
18153;DHT22;9202;51.578;7.734;2023-03-01T08:04:56;-1.40;99.90
18153;DHT22;9202;51.578;7.734;2023-03-01T08:06:59;-1.30;99.90
18153;DHT22;9202;51.578;7.734;2023-03-01T08:09:01;-1.20;99.90
18153;DHT22;9202;51.578;7.734;2023-03-01T08:11:05;-1.00;99.90
18153;DHT22;9202;51.578;7.734;2023-03-01T08:13:08;-0.90;99.90
18153;DHT22;9202;51.578;7.734;2023-03-01T08:15:11;-0.80;99.90
18153;DHT22;9202;51.578;7.734;2023-03-01T08:17:14;-0.60;99.90
18153;DHT22;9202;51.578;7.734;2023-03-01T08:19:17;-0.40;99.90
18153;DHT22;9202;51.578;7.734;2023-03-01T08:21:19;-0.30;99.90
18153;DHT22;9202;51.578;7.734;2023-03-01T08:23:22;-0.20;99.90
18153;DHT22;9202;51.578;7.734;2023-03-01T08:25:25;-0.10;99.90
18153;DHT22;9202;51.578;7.734;2023-03-01T08:27:27;0.10;99.90
18153;DHT22;9202;51.578;7.734;2023-03-01T08:29:31;0.10;99.90
18153;DHT22;9202;51.578;7.734;2023-03-01T08:31:34;0.30;99.90
18153;DHT22;9202;51.578;7.734;2023-03-01T08:33:37;0.40;99.90
18153;DHT22;9202;51.578;7.734;2023-03-01T08:35:40;0.70;99.90
18153;DHT22;9202;51.578;7.734;2023-03-01T08:37:43;0.70;99.90
18153;DHT22;9202;51.578;7.734;2023-03-01T08:39:46;0.80;99.90
18153;DHT22;9202;51.578;7.734;2023-03-01T08:41:48;0.90;99.90
18153;DHT22;9202;51.578;7.734;2023-03-01T08:43:51;1.00;99.90
18153;DHT22;9202;51.578;7.734;2023-03-01T08:45:54;1.10;99.90
18153;DHT22;9202;51.578;7.734;2023-03-01T08:47:57;1.20;99.90
18153;DHT22;9202;51.578;7.734;2023-03-01T08:49:59;0.80;99.90
18153;DHT22;9202;51.578;7.734;2023-03-01T08:52:02;1.00;99.90
18153;DHT22;9202;51.578;7.734;2023-03-01T08:54:05;1.20;99.90
18153;DHT22;9202;51.578;7.734;2023-03-01T08:56:08;1.30;99.90
18153;DHT22;9202;51.578;7.734;2023-03-01T08:58:11;1.40;99.90
18153;DHT22;9202;51.578;7.734;2023-03-01T09:02:17;1.70;99.90
18153;DHT22;9202;51.578;7.734;2023-03-01T09:04:20;1.50;99.90
18153;DHT22;9202;51.578;7.734;2023-03-01T09:06:23;1.90;99.90
18153;DHT22;9202;51.578;7.734;2023-03-01T09:08:26;2.10;99.90
18153;DHT22;9202;51.578;7.734;2023-03-01T09:10:28;1.80;99.90
18153;DHT22;9202;51.578;7.734;2023-03-01T09:12:31;2.00;99.90
18153;DHT22;9202;51.578;7.734;2023-03-01T09:14:33;2.00;99.90
18153;DHT22;9202;51.578;7.734;2023-03-01T09:16:36;2.00;99.90
18153;DHT22;9202;51.578;7.734;2023-03-01T09:18:38;2.00;99.90
18153;DHT22;9202;51.578;7.734;2023-03-01T09:20:41;2.10;99.90
18153;DHT22;9202;51.578;7.734;2023-03-01T09:22:44;2.30;99.90
18153;DHT22;9202;51.578;7.734;2023-03-01T09:24:47;2.30;99.90
18153;DHT22;9202;51.578;7.734;2023-03-01T09:26:49;2.10;99.90
18153;DHT22;9202;51.578;7.734;2023-03-01T09:28:53;2.40;99.90
18153;DHT22;9202;51.578;7.734;2023-03-01T09:30:58;2.80;99.90
18153;DHT22;9202;51.578;7.734;2023-03-01T09:33:01;2.80;99.90
18153;DHT22;9202;51.578;7.734;2023-03-01T09:35:05;2.90;99.90
18153;DHT22;9202;51.578;7.734;2023-03-01T09:37:07;2.90;99.90
18153;DHT22;9202;51.578;7.734;2023-03-01T09:39:10;3.00;99.90
18153;DHT22;9202;51.578;7.734;2023-03-01T09:41:18;2.80;99.90
18153;DHT22;9202;51.578;7.734;2023-03-01T09:43:21;3.10;99.90
18153;DHT22;9202;51.578;7.734;2023-03-01T09:45:29;2.70;99.90
18153;DHT22;9202;51.578;7.734;2023-03-01T09:47:33;2.90;99.90
18153;DHT22;9202;51.578;7.734;2023-03-01T09:49:38;3.10;99.90
18153;DHT22;9202;51.578;7.734;2023-03-01T09:51:41;3.30;99.90
18153;DHT22;9202;51.578;7.734;2023-03-01T09:53:44;3.40;99.90
18153;DHT22;9202;51.578;7.734;2023-03-01T09:55:48;3.60;99.90
18153;DHT22;9202;51.578;7.734;2023-03-01T09:57:53;3.40;99.90
18153;DHT22;9202;51.578;7.734;2023-03-01T10:00:00;3.50;99.90
18153;DHT22;9202;51.578;7.734;2023-03-01T10:02:11;3.60;99.90
18153;DHT22;9202;51.578;7.734;2023-03-01T10:06:40;3.80;99.90
18153;DHT22;9202;51.578;7.734;2023-03-01T10:08:47;4.10;99.90
18153;DHT22;9202;51.578;7.734;2023-03-01T10:10:51;4.30;99.90
18153;DHT22;9202;51.578;7.734;2023-03-01T10:12:54;4.40;99.90
18153;DHT22;9202;51.578;7.734;2023-03-01T10:14:59;4.40;99.90
18153;DHT22;9202;51.578;7.734;2023-03-01T10:17:03;4.60;99.90
18153;DHT22;9202;51.578;7.734;2023-03-01T10:19:09;4.30;99.90
18153;DHT22;9202;51.578;7.734;2023-03-01T10:21:13;4.40;99.90
18153;DHT22;9202;51.578;7.734;2023-03-01T10:23:16;4.20;99.90
18153;DHT22;9202;51.578;7.734;2023-03-01T10:25:23;4.70;99.90
18153;DHT22;9202;51.578;7.734;2023-03-01T10:27:26;4.80;99.90
18153;DHT22;9202;51.578;7.734;2023-03-01T10:29:31;4.50;99.90
18153;DHT22;9202;51.578;7.734;2023-03-01T10:31:39;4.70;99.90
18153;DHT22;9202;51.578;7.734;2023-03-01T10:33:42;4.80;99.90
18153;DHT22;9202;51.578;7.734;2023-03-01T10:35:44;4.40;99.90
18153;DHT22;9202;51.578;7.734;2023-03-01T10:37:58;4.80;99.90
18153;DHT22;9202;51.578;7.734;2023-03-01T10:40:02;4.30;99.90
18153;DHT22;9202;51.578;7.734;2023-03-01T10:42:18;5.00;99.90
18153;DHT22;9202;51.578;7.734;2023-03-01T10:44:21;5.50;99.90
18153;DHT22;9202;51.578;7.734;2023-03-01T10:46:26;5.50;99.90
18153;DHT22;9202;51.578;7.734;2023-03-01T10:48:29;5.20;99.90
18153;DHT22;9202;51.578;7.734;2023-03-01T10:50:43;5.10;99.90
18153;DHT22;9202;51.578;7.734;2023-03-01T10:52:58;5.40;99.90
18153;DHT22;9202;51.578;7.734;2023-03-01T10:55:04;5.20;99.90
18153;DHT22;9202;51.578;7.734;2023-03-01T10:57:10;4.90;99.90
18153;DHT22;9202;51.578;7.734;2023-03-01T10:59:19;4.90;99.90
18153;DHT22;9202;51.578;7.734;2023-03-01T11:01:26;5.20;99.90
18153;DHT22;9202;51.578;7.734;2023-03-01T11:03:29;5.60;99.90
18153;DHT22;9202;51.578;7.734;2023-03-01T11:05:33;5.60;99.90
18153;DHT22;9202;51.578;7.734;2023-03-01T11:07:37;5.30;99.90
18153;DHT22;9202;51.578;7.734;2023-03-01T11:09:42;5.40;99.90
18153;DHT22;9202;51.578;7.734;2023-03-01T11:11:44;5.50;99.90
18153;DHT22;9202;51.578;7.734;2023-03-01T11:13:49;5.40;99.90
18153;DHT22;9202;51.578;7.734;2023-03-01T11:15:58;5.40;99.90
18153;DHT22;9202;51.578;7.734;2023-03-01T11:18:01;5.50;99.90
18153;DHT22;9202;51.578;7.734;2023-03-01T11:20:23;5.20;99.90
18153;DHT22;9202;51.578;7.734;2023-03-01T11:22:12;5.40;99.90
18153;DHT22;9202;51.578;7.734;2023-03-01T11:24:16;5.90;99.90
18153;DHT22;9202;51.578;7.734;2023-03-01T11:26:19;6.00;99.90
18153;DHT22;9202;51.578;7.734;2023-03-01T11:28:23;6.00;99.90
18153;DHT22;9202;51.578;7.734;2023-03-01T11:30:29;5.80;99.90
18153;DHT22;9202;51.578;7.734;2023-03-01T11:32:34;5.90;99.90
18153;DHT22;9202;51.578;7.734;2023-03-01T11:34:40;5.90;99.90
18153;DHT22;9202;51.578;7.734;2023-03-01T11:36:45;5.80;99.90
18153;DHT22;9202;51.578;7.734;2023-03-01T11:38:48;5.40;99.90
18153;DHT22;9202;51.578;7.734;2023-03-01T11:40:52;5.00;99.90
18153;DHT22;9202;51.578;7.734;2023-03-01T11:43:04;5.20;99.90
18153;DHT22;9202;51.578;7.734;2023-03-01T11:45:10;5.40;99.90
18153;DHT22;9202;51.578;7.734;2023-03-01T11:47:16;5.80;99.90
18153;DHT22;9202;51.578;7.734;2023-03-01T11:49:29;6.20;99.90
18153;DHT22;9202;51.578;7.734;2023-03-01T11:51:38;6.10;99.90
18153;DHT22;9202;51.578;7.734;2023-03-01T11:53:50;6.30;99.90
18153;DHT22;9202;51.578;7.734;2023-03-01T11:56:05;6.00;99.90
18153;DHT22;9202;51.578;7.734;2023-03-01T11:58:17;6.20;99.90
18153;DHT22;9202;51.578;7.734;2023-03-01T12:00:34;6.20;99.90
18153;DHT22;9202;51.578;7.734;2023-03-01T12:07:22;6.00;99.90
18153;DHT22;9202;51.578;7.734;2023-03-01T12:09:32;6.10;99.90
18153;DHT22;9202;51.578;7.734;2023-03-01T12:11:39;5.70;99.90
18153;DHT22;9202;51.578;7.734;2023-03-01T12:13:50;5.90;99.90
18153;DHT22;9202;51.578;7.734;2023-03-01T12:16:00;6.10;99.90
18153;DHT22;9202;51.578;7.734;2023-03-01T12:18:10;6.40;99.90
18153;DHT22;9202;51.578;7.734;2023-03-01T12:20:17;6.40;99.90
18153;DHT22;9202;51.578;7.734;2023-03-01T12:22:23;6.50;99.90
18153;DHT22;9202;51.578;7.734;2023-03-01T12:24:29;6.40;99.90
18153;DHT22;9202;51.578;7.734;2023-03-01T12:26:33;6.30;99.90
18153;DHT22;9202;51.578;7.734;2023-03-01T12:28:42;6.20;99.90
18153;DHT22;9202;51.578;7.734;2023-03-01T12:30:53;6.30;99.90
18153;DHT22;9202;51.578;7.734;2023-03-01T12:32:57;6.60;99.90
18153;DHT22;9202;51.578;7.734;2023-03-01T12:35:08;6.70;99.90
18153;DHT22;9202;51.578;7.734;2023-03-01T12:37:13;6.90;99.90
18153;DHT22;9202;51.578;7.734;2023-03-01T12:39:22;7.00;99.90
18153;DHT22;9202;51.578;7.734;2023-03-01T12:41:29;6.90;99.90
18153;DHT22;9202;51.578;7.734;2023-03-01T12:43:36;6.80;99.90
18153;DHT22;9202;51.578;7.734;2023-03-01T12:45:43;6.90;99.90
18153;DHT22;9202;51.578;7.734;2023-03-01T12:47:52;6.70;99.90
18153;DHT22;9202;51.578;7.734;2023-03-01T12:49:55;6.60;99.90
18153;DHT22;9202;51.578;7.734;2023-03-01T12:51:59;6.30;99.90
18153;DHT22;9202;51.578;7.734;2023-03-01T12:54:05;6.50;99.90
18153;DHT22;9202;51.578;7.734;2023-03-01T12:56:08;6.80;99.90
18153;DHT22;9202;51.578;7.734;2023-03-01T12:58:16;6.70;99.90
18153;DHT22;9202;51.578;7.734;2023-03-01T13:00:24;6.80;99.90
18153;DHT22;9202;51.578;7.734;2023-03-01T13:02:30;6.90;99.90
18153;DHT22;9202;51.578;7.734;2023-03-01T13:04:36;6.70;99.90
18153;DHT22;9202;51.578;7.734;2023-03-01T13:06:41;6.90;99.90
18153;DHT22;9202;51.578;7.734;2023-03-01T13:08:47;6.90;99.90
18153;DHT22;9202;51.578;7.734;2023-03-01T13:10:51;6.80;99.90
18153;DHT22;9202;51.578;7.734;2023-03-01T13:13:12;7.00;99.90
18153;DHT22;9202;51.578;7.734;2023-03-01T13:15:27;7.10;99.90
18153;DHT22;9202;51.578;7.734;2023-03-01T13:17:31;7.00;99.90
18153;DHT22;9202;51.578;7.734;2023-03-01T13:19:34;6.90;99.90
18153;DHT22;9202;51.578;7.734;2023-03-01T13:21:37;6.80;99.90
18153;DHT22;9202;51.578;7.734;2023-03-01T13:23:41;6.80;99.90
18153;DHT22;9202;51.578;7.734;2023-03-01T13:26:05;6.70;99.90
18153;DHT22;9202;51.578;7.734;2023-03-01T13:30:40;6.90;99.90
18153;DHT22;9202;51.578;7.734;2023-03-01T13:32:44;6.70;99.90
18153;DHT22;9202;51.578;7.734;2023-03-01T13:34:50;6.90;99.90